sensor_id;sensor_type;location;lat;lon;timestamp;temperature;humidity
13470;DHT22;6807;48.682;9.032;2022-07-06T00:01:58;14.30;99.90
13470;DHT22;6807;48.682;9.032;2022-07-06T00:04:25;14.30;99.90
13470;DHT22;6807;48.682;9.032;2022-07-06T00:06:52;14.30;99.90
13470;DHT22;6807;48.682;9.032;2022-07-06T00:09:18;14.40;99.90
13470;DHT22;6807;48.682;9.032;2022-07-06T00:11:45;14.30;99.90
13470;DHT22;6807;48.682;9.032;2022-07-06T00:14:13;14.40;99.90
13470;DHT22;6807;48.682;9.032;2022-07-06T00:16:40;14.30;99.90
13470;DHT22;6807;48.682;9.032;2022-07-06T00:19:07;14.40;1.00
13470;DHT22;6807;48.682;9.032;2022-07-06T00:21:34;14.40;99.90
13470;DHT22;6807;48.682;9.032;2022-07-06T00:24:01;14.30;99.90
13470;DHT22;6807;48.682;9.032;2022-07-06T00:26:28;14.30;99.90
13470;DHT22;6807;48.682;9.032;2022-07-06T00:28:55;14.30;99.90
13470;DHT22;6807;48.682;9.032;2022-07-06T00:31:23;14.20;99.90
13470;DHT22;6807;48.682;9.032;2022-07-06T00:33:50;14.10;99.90
13470;DHT22;6807;48.682;9.032;2022-07-06T00:36:18;14.20;1.00
13470;DHT22;6807;48.682;9.032;2022-07-06T00:38:45;14.20;99.90
13470;DHT22;6807;48.682;9.032;2022-07-06T00:41:12;14.10;1.00
13470;DHT22;6807;48.682;9.032;2022-07-06T00:43:49;14.10;1.00
13470;DHT22;6807;48.682;9.032;2022-07-06T00:46:17;14.10;1.00
13470;DHT22;6807;48.682;9.032;2022-07-06T00:48:45;14.00;1.00
13470;DHT22;6807;48.682;9.032;2022-07-06T00:51:13;13.90;1.00
13470;DHT22;6807;48.682;9.032;2022-07-06T00:53:42;13.90;1.00
13470;DHT22;6807;48.682;9.032;2022-07-06T00:56:09;13.90;1.00
13470;DHT22;6807;48.682;9.032;2022-07-06T00:58:36;14.30;1.00
13470;DHT22;6807;48.682;9.032;2022-07-06T01:01:03;13.90;1.00
13470;DHT22;6807;48.682;9.032;2022-07-06T01:03:30;13.80;1.00
13470;DHT22;6807;48.682;9.032;2022-07-06T01:06:00;13.80;1.00
13470;DHT22;6807;48.682;9.032;2022-07-06T01:08:28;13.70;1.00
13470;DHT22;6807;48.682;9.032;2022-07-06T01:10:55;13.60;1.00
13470;DHT22;6807;48.682;9.032;2022-07-06T01:13:22;13.60;1.00
13470;DHT22;6807;48.682;9.032;2022-07-06T01:15:49;13.60;1.00
13470;DHT22;6807;48.682;9.032;2022-07-06T01:18:16;13.60;1.00
13470;DHT22;6807;48.682;9.032;2022-07-06T01:20:44;13.50;1.00
13470;DHT22;6807;48.682;9.032;2022-07-06T01:23:11;13.50;1.00
13470;DHT22;6807;48.682;9.032;2022-07-06T01:25:39;13.50;1.00
13470;DHT22;6807;48.682;9.032;2022-07-06T01:28:06;13.40;1.00
13470;DHT22;6807;48.682;9.032;2022-07-06T01:30:33;13.50;1.00
13470;DHT22;6807;48.682;9.032;2022-07-06T01:32:59;13.50;1.00
13470;DHT22;6807;48.682;9.032;2022-07-06T01:35:26;13.60;1.00
13470;DHT22;6807;48.682;9.032;2022-07-06T01:37:57;13.60;1.00
13470;DHT22;6807;48.682;9.032;2022-07-06T01:40:23;13.50;1.00
13470;DHT22;6807;48.682;9.032;2022-07-06T01:42:50;13.90;1.00
13470;DHT22;6807;48.682;9.032;2022-07-06T01:45:17;14.00;99.90
13470;DHT22;6807;48.682;9.032;2022-07-06T01:47:44;14.00;99.90
13470;DHT22;6807;48.682;9.032;2022-07-06T01:50:11;14.00;99.90
13470;DHT22;6807;48.682;9.032;2022-07-06T01:52:38;13.90;99.90
13470;DHT22;6807;48.682;9.032;2022-07-06T01:55:07;13.80;1.00
13470;DHT22;6807;48.682;9.032;2022-07-06T01:57:34;14.00;99.90
13470;DHT22;6807;48.682;9.032;2022-07-06T02:00:01;14.00;99.90
13470;DHT22;6807;48.682;9.032;2022-07-06T02:02:28;13.90;99.90
13470;DHT22;6807;48.682;9.032;2022-07-06T02:04:55;13.90;99.90
13470;DHT22;6807;48.682;9.032;2022-07-06T02:07:23;13.70;99.90
13470;DHT22;6807;48.682;9.032;2022-07-06T02:09:49;13.60;99.90
13470;DHT22;6807;48.682;9.032;2022-07-06T02:12:18;13.60;99.90
13470;DHT22;6807;48.682;9.032;2022-07-06T02:14:44;13.50;99.90
13470;DHT22;6807;48.682;9.032;2022-07-06T02:17:11;13.40;1.00
13470;DHT22;6807;48.682;9.032;2022-07-06T02:19:38;13.50;1.00
13470;DHT22;6807;48.682;9.032;2022-07-06T02:22:05;13.30;1.00
13470;DHT22;6807;48.682;9.032;2022-07-06T02:24:32;13.40;1.00
13470;DHT22;6807;48.682;9.032;2022-07-06T02:26:59;13.40;1.00
13470;DHT22;6807;48.682;9.032;2022-07-06T02:29:27;13.40;1.00
13470;DHT22;6807;48.682;9.032;2022-07-06T02:31:54;13.30;1.00
13470;DHT22;6807;48.682;9.032;2022-07-06T02:34:21;13.20;1.00
13470;DHT22;6807;48.682;9.032;2022-07-06T02:36:47;13.20;1.00
13470;DHT22;6807;48.682;9.032;2022-07-06T02:39:14;13.20;1.00
13470;DHT22;6807;48.682;9.032;2022-07-06T02:41:41;13.10;1.00
13470;DHT22;6807;48.682;9.032;2022-07-06T02:44:08;13.20;1.00
13470;DHT22;6807;48.682;9.032;2022-07-06T02:46:36;13.50;1.00
13470;DHT22;6807;48.682;9.032;2022-07-06T02:49:03;13.20;1.00
13470;DHT22;6807;48.682;9.032;2022-07-06T02:51:30;13.20;1.00
13470;DHT22;6807;48.682;9.032;2022-07-06T02:53:57;13.40;1.00
13470;DHT22;6807;48.682;9.032;2022-07-06T02:56:24;13.50;1.00
13470;DHT22;6807;48.682;9.032;2022-07-06T02:58:50;13.40;1.00
13470;DHT22;6807;48.682;9.032;2022-07-06T03:01:17;13.40;1.00
13470;DHT22;6807;48.682;9.032;2022-07-06T03:03:45;14.00;1.00
13470;DHT22;6807;48.682;9.032;2022-07-06T03:06:12;13.40;1.00
13470;DHT22;6807;48.682;9.032;2022-07-06T03:08:39;13.40;1.00
13470;DHT22;6807;48.682;9.032;2022-07-06T03:11:06;13.40;1.00
13470;DHT22;6807;48.682;9.032;2022-07-06T03:13:33;13.30;1.00
13470;DHT22;6807;48.682;9.032;2022-07-06T03:16:00;13.50;1.00
13470;DHT22;6807;48.682;9.032;2022-07-06T03:18:26;13.50;1.00
13470;DHT22;6807;48.682;9.032;2022-07-06T03:20:55;13.50;1.00
13470;DHT22;6807;48.682;9.032;2022-07-06T03:23:22;13.50;1.00
13470;DHT22;6807;48.682;9.032;2022-07-06T03:25:48;13.30;1.00
13470;DHT22;6807;48.682;9.032;2022-07-06T03:28:15;13.30;1.00
13470;DHT22;6807;48.682;9.032;2022-07-06T03:30:42;13.20;1.00
13470;DHT22;6807;48.682;9.032;2022-07-06T03:33:09;13.20;1.00
13470;DHT22;6807;48.682;9.032;2022-07-06T03:35:36;13.20;99.90
13470;DHT22;6807;48.682;9.032;2022-07-06T03:38:04;13.30;68.40
13470;DHT22;6807;48.682;9.032;2022-07-06T03:40:31;13.40;6.10
13470;DHT22;6807;48.682;9.032;2022-07-06T03:42:58;13.50;11.60
13470;DHT22;6807;48.682;9.032;2022-07-06T03:45:25;13.50;1.00
13470;DHT22;6807;48.682;9.032;2022-07-06T03:47:51;13.40;1.00
13470;DHT22;6807;48.682;9.032;2022-07-06T03:50:18;13.40;10.90
13470;DHT22;6807;48.682;9.032;2022-07-06T03:52:46;13.60;1.00
13470;DHT22;6807;48.682;9.032;2022-07-06T03:55:14;13.60;1.00
13470;DHT22;6807;48.682;9.032;2022-07-06T03:57:41;13.60;17.60
13470;DHT22;6807;48.682;9.032;2022-07-06T04:00:09;13.50;81.70
13470;DHT22;6807;48.682;9.032;2022-07-06T04:02:36;13.40;92.70
13470;DHT22;6807;48.682;9.032;2022-07-06T04:05:05;13.50;65.00
13470;DHT22;6807;48.682;9.032;2022-07-06T04:07:31;13.70;4.00
13470;DHT22;6807;48.682;9.032;2022-07-06T04:09:58;13.70;7.70
13470;DHT22;6807;48.682;9.032;2022-07-06T04:12:26;13.90;8.90
13470;DHT22;6807;48.682;9.032;2022-07-06T04:14:57;13.80;1.00
13470;DHT22;6807;48.682;9.032;2022-07-06T04:17:24;13.80;10.20
13470;DHT22;6807;48.682;9.032;2022-07-06T04:20:09;13.80;79.20
13470;DHT22;6807;48.682;9.032;2022-07-06T04:22:37;13.70;99.90
13470;DHT22;6807;48.682;9.032;2022-07-06T04:25:05;13.70;99.90
13470;DHT22;6807;48.682;9.032;2022-07-06T04:27:33;13.80;99.90
13470;DHT22;6807;48.682;9.032;2022-07-06T04:30:01;13.80;96.10
13470;DHT22;6807;48.682;9.032;2022-07-06T04:32:29;13.90;65.20
13470;DHT22;6807;48.682;9.032;2022-07-06T04:34:55;13.90;72.30
13470;DHT22;6807;48.682;9.032;2022-07-06T04:37:22;13.80;39.30
13470;DHT22;6807;48.682;9.032;2022-07-06T04:39:49;13.90;99.90
13470;DHT22;6807;48.682;9.032;2022-07-06T04:42:16;14.00;77.80
13470;DHT22;6807;48.682;9.032;2022-07-06T04:44:45;14.00;60.40
13470;DHT22;6807;48.682;9.032;2022-07-06T04:47:12;14.10;15.10
13470;DHT22;6807;48.682;9.032;2022-07-06T04:49:40;14.20;21.40
13470;DHT22;6807;48.682;9.032;2022-07-06T04:52:07;14.20;16.10
13470;DHT22;6807;48.682;9.032;2022-07-06T04:54:34;14.20;53.10
13470;DHT22;6807;48.682;9.032;2022-07-06T04:57:00;14.30;18.00
13470;DHT22;6807;48.682;9.032;2022-07-06T04:59:27;14.30;1.00
13470;DHT22;6807;48.682;9.032;2022-07-06T05:01:56;14.30;43.70
13470;DHT22;6807;48.682;9.032;2022-07-06T05:04:22;14.30;1.00
13470;DHT22;6807;48.682;9.032;2022-07-06T05:06:50;14.40;1.00
13470;DHT22;6807;48.682;9.032;2022-07-06T05:09:17;14.40;1.00
13470;DHT22;6807;48.682;9.032;2022-07-06T05:11:44;14.50;1.00
13470;DHT22;6807;48.682;9.032;2022-07-06T05:14:10;14.50;5.30
13470;DHT22;6807;48.682;9.032;2022-07-06T05:16:37;14.50;1.00
13470;DHT22;6807;48.682;9.032;2022-07-06T05:19:06;14.50;1.00
13470;DHT22;6807;48.682;9.032;2022-07-06T05:21:34;14.60;1.00
13470;DHT22;6807;48.682;9.032;2022-07-06T05:24:01;14.70;1.00
13470;DHT22;6807;48.682;9.032;2022-07-06T05:26:28;14.80;1.00
13470;DHT22;6807;48.682;9.032;2022-07-06T05:28:54;14.80;1.00
13470;DHT22;6807;48.682;9.032;2022-07-06T05:31:21;14.90;1.00
13470;DHT22;6807;48.682;9.032;2022-07-06T05:33:48;15.00;1.00
13470;DHT22;6807;48.682;9.032;2022-07-06T05:36:18;15.00;1.00
13470;DHT22;6807;48.682;9.032;2022-07-06T05:38:45;15.10;1.00
13470;DHT22;6807;48.682;9.032;2022-07-06T05:41:11;15.20;1.00
13470;DHT22;6807;48.682;9.032;2022-07-06T05:43:38;15.40;1.00
13470;DHT22;6807;48.682;9.032;2022-07-06T05:46:05;15.50;1.00
13470;DHT22;6807;48.682;9.032;2022-07-06T05:48:32;15.50;99.90
13470;DHT22;6807;48.682;9.032;2022-07-06T05:51:18;15.70;1.00
13470;DHT22;6807;48.682;9.032;2022-07-06T05:53:45;15.70;99.90
13470;DHT22;6807;48.682;9.032;2022-07-06T05:56:12;16.00;99.90
13470;DHT22;6807;48.682;9.032;2022-07-06T05:58:39;16.10;99.90
13470;DHT22;6807;48.682;9.032;2022-07-06T06:01:06;16.40;99.90
13470;DHT22;6807;48.682;9.032;2022-07-06T06:03:34;16.40;99.90
13470;DHT22;6807;48.682;9.032;2022-07-06T06:06:01;16.50;99.90
13470;DHT22;6807;48.682;9.032;2022-07-06T06:08:30;16.50;99.90
13470;DHT22;6807;48.682;9.032;2022-07-06T06:10:57;16.70;99.90
13470;DHT22;6807;48.682;9.032;2022-07-06T06:13:23;16.80;99.90
13470;DHT22;6807;48.682;9.032;2022-07-06T06:15:50;16.90;99.90
13470;DHT22;6807;48.682;9.032;2022-07-06T06:18:17;17.10;1.00
13470;DHT22;6807;48.682;9.032;2022-07-06T06:20:44;17.40;1.00
13470;DHT22;6807;48.682;9.032;2022-07-06T06:23:11;17.70;1.00
13470;DHT22;6807;48.682;9.032;2022-07-06T06:25:40;17.80;1.00
13470;DHT22;6807;48.682;9.032;2022-07-06T06:28:08;17.70;1.00
13470;DHT22;6807;48.682;9.032;2022-07-06T06:30:36;17.80;1.00
13470;DHT22;6807;48.682;9.032;2022-07-06T06:33:06;18.10;1.00
13470;DHT22;6807;48.682;9.032;2022-07-06T06:35:33;18.00;1.00
13470;DHT22;6807;48.682;9.032;2022-07-06T06:37:59;18.40;99.90
13470;DHT22;6807;48.682;9.032;2022-07-06T06:40:26;18.40;99.90
13470;DHT22;6807;48.682;9.032;2022-07-06T06:42:55;18.60;99.90
13470;DHT22;6807;48.682;9.032;2022-07-06T06:45:22;18.60;99.90
13470;DHT22;6807;48.682;9.032;2022-07-06T06:47:48;18.60;99.90
13470;DHT22;6807;48.682;9.032;2022-07-06T06:50:15;18.60;99.90
13470;DHT22;6807;48.682;9.032;2022-07-06T06:52:42;18.60;99.90
13470;DHT22;6807;48.682;9.032;2022-07-06T06:55:09;18.70;99.90
13470;DHT22;6807;48.682;9.032;2022-07-06T06:57:36;18.90;99.90
13470;DHT22;6807;48.682;9.032;2022-07-06T07:00:06;18.60;99.90
13470;DHT22;6807;48.682;9.032;2022-07-06T07:02:33;17.90;99.90
13470;DHT22;6807;48.682;9.032;2022-07-06T07:04:59;17.90;99.90
13470;DHT22;6807;48.682;9.032;2022-07-06T07:07:26;18.20;99.90
13470;DHT22;6807;48.682;9.032;2022-07-06T07:09:53;18.30;99.90
13470;DHT22;6807;48.682;9.032;2022-07-06T07:12:20;18.50;99.90
13470;DHT22;6807;48.682;9.032;2022-07-06T07:14:47;19.00;99.90
13470;DHT22;6807;48.682;9.032;2022-07-06T07:17:15;19.40;85.50
13470;DHT22;6807;48.682;9.032;2022-07-06T07:19:42;19.30;57.10
13470;DHT22;6807;48.682;9.032;2022-07-06T07:22:09;19.20;99.90
13470;DHT22;6807;48.682;9.032;2022-07-06T07:24:36;19.40;95.10
13470;DHT22;6807;48.682;9.032;2022-07-06T07:27:03;19.70;58.80
13470;DHT22;6807;48.682;9.032;2022-07-06T07:29:30;20.50;70.40
13470;DHT22;6807;48.682;9.032;2022-07-06T07:31:57;21.00;1.00
13470;DHT22;6807;48.682;9.032;2022-07-06T07:34:25;21.00;1.00
13470;DHT22;6807;48.682;9.032;2022-07-06T07:36:52;20.80;1.00
13470;DHT22;6807;48.682;9.032;2022-07-06T07:39:19;20.70;1.00
13470;DHT22;6807;48.682;9.032;2022-07-06T07:41:46;21.50;1.00
13470;DHT22;6807;48.682;9.032;2022-07-06T07:44:15;21.70;1.00
13470;DHT22;6807;48.682;9.032;2022-07-06T07:46:42;21.90;1.00
13470;DHT22;6807;48.682;9.032;2022-07-06T07:49:09;21.70;1.00
13470;DHT22;6807;48.682;9.032;2022-07-06T07:51:38;22.10;1.00
13470;DHT22;6807;48.682;9.032;2022-07-06T07:54:05;22.40;1.00
13470;DHT22;6807;48.682;9.032;2022-07-06T07:56:32;22.10;1.00
13470;DHT22;6807;48.682;9.032;2022-07-06T07:58:58;22.40;1.00
13470;DHT22;6807;48.682;9.032;2022-07-06T08:01:25;22.40;1.00
13470;DHT22;6807;48.682;9.032;2022-07-06T08:03:52;23.10;1.00
13470;DHT22;6807;48.682;9.032;2022-07-06T08:06:19;23.00;1.00
13470;DHT22;6807;48.682;9.032;2022-07-06T08:08:47;23.20;1.00
13470;DHT22;6807;48.682;9.032;2022-07-06T08:11:14;23.70;1.00
13470;DHT22;6807;48.682;9.032;2022-07-06T08:13:41;24.00;1.00
13470;DHT22;6807;48.682;9.032;2022-07-06T08:16:08;24.00;1.00
13470;DHT22;6807;48.682;9.032;2022-07-06T08:18:36;23.60;1.00
13470;DHT22;6807;48.682;9.032;2022-07-06T08:21:03;24.00;1.00
13470;DHT22;6807;48.682;9.032;2022-07-06T08:23:31;24.20;1.00
13470;DHT22;6807;48.682;9.032;2022-07-06T08:26:01;23.70;1.00
13470;DHT22;6807;48.682;9.032;2022-07-06T08:28:28;23.80;1.00
13470;DHT22;6807;48.682;9.032;2022-07-06T08:30:55;23.90;1.00
13470;DHT22;6807;48.682;9.032;2022-07-06T08:33:23;23.80;1.00
13470;DHT22;6807;48.682;9.032;2022-07-06T08:35:49;24.50;1.00
13470;DHT22;6807;48.682;9.032;2022-07-06T08:38:16;24.80;1.00
13470;DHT22;6807;48.682;9.032;2022-07-06T08:40:45;25.00;1.00
13470;DHT22;6807;48.682;9.032;2022-07-06T08:43:15;25.20;1.00
13470;DHT22;6807;48.682;9.032;2022-07-06T08:45:42;25.30;1.00
13470;DHT22;6807;48.682;9.032;2022-07-06T08:48:10;24.90;1.00
13470;DHT22;6807;48.682;9.032;2022-07-06T08:50:38;25.40;1.00
13470;DHT22;6807;48.682;9.032;2022-07-06T08:53:05;25.20;99.90
13470;DHT22;6807;48.682;9.032;2022-07-06T08:55:33;24.50;99.90
13470;DHT22;6807;48.682;9.032;2022-07-06T08:58:00;24.70;99.90
13470;DHT22;6807;48.682;9.032;2022-07-06T09:00:28;25.60;1.00
13470;DHT22;6807;48.682;9.032;2022-07-06T09:02:55;25.90;99.90
13470;DHT22;6807;48.682;9.032;2022-07-06T09:05:23;26.50;1.00
13470;DHT22;6807;48.682;9.032;2022-07-06T09:07:52;26.30;99.90
13470;DHT22;6807;48.682;9.032;2022-07-06T09:10:21;26.90;99.90
13470;DHT22;6807;48.682;9.032;2022-07-06T09:12:48;27.20;1.00
13470;DHT22;6807;48.682;9.032;2022-07-06T09:15:15;27.40;1.00
13470;DHT22;6807;48.682;9.032;2022-07-06T09:17:44;27.20;1.00
13470;DHT22;6807;48.682;9.032;2022-07-06T09:20:12;27.10;1.00
13470;DHT22;6807;48.682;9.032;2022-07-06T09:22:40;27.30;99.90
13470;DHT22;6807;48.682;9.032;2022-07-06T09:25:09;27.70;99.90
13470;DHT22;6807;48.682;9.032;2022-07-06T09:27:41;26.60;99.90
13470;DHT22;6807;48.682;9.032;2022-07-06T09:30:10;26.30;99.90
13470;DHT22;6807;48.682;9.032;2022-07-06T09:32:40;27.00;99.90
13470;DHT22;6807;48.682;9.032;2022-07-06T09:35:19;26.90;99.90
13470;DHT22;6807;48.682;9.032;2022-07-06T09:37:47;26.60;99.90
13470;DHT22;6807;48.682;9.032;2022-07-06T09:40:18;26.60;99.90
13470;DHT22;6807;48.682;9.032;2022-07-06T09:42:45;26.20;1.00
13470;DHT22;6807;48.682;9.032;2022-07-06T09:45:12;26.10;99.90
13470;DHT22;6807;48.682;9.032;2022-07-06T09:47:39;27.00;99.90
13470;DHT22;6807;48.682;9.032;2022-07-06T09:50:15;27.00;99.90
13470;DHT22;6807;48.682;9.032;2022-07-06T09:52:53;27.70;1.00
13470;DHT22;6807;48.682;9.032;2022-07-06T09:55:22;28.20;99.90
13470;DHT22;6807;48.682;9.032;2022-07-06T09:57:54;28.70;1.00
13470;DHT22;6807;48.682;9.032;2022-07-06T10:00:21;29.20;99.90
13470;DHT22;6807;48.682;9.032;2022-07-06T10:02:48;29.20;99.90
13470;DHT22;6807;48.682;9.032;2022-07-06T10:05:18;29.20;99.90
13470;DHT22;6807;48.682;9.032;2022-07-06T10:07:45;28.70;99.90
13470;DHT22;6807;48.682;9.032;2022-07-06T10:10:16;29.20;99.90
13470;DHT22;6807;48.682;9.032;2022-07-06T10:12:44;27.80;99.90
13470;DHT22;6807;48.682;9.032;2022-07-06T10:15:15;30.90;99.90
13470;DHT22;6807;48.682;9.032;2022-07-06T10:17:44;28.70;99.90
13470;DHT22;6807;48.682;9.032;2022-07-06T10:20:11;28.20;99.90
13470;DHT22;6807;48.682;9.032;2022-07-06T10:22:40;26.20;99.90
13470;DHT22;6807;48.682;9.032;2022-07-06T10:25:07;25.10;99.90
13470;DHT22;6807;48.682;9.032;2022-07-06T10:27:35;24.20;99.90
13470;DHT22;6807;48.682;9.032;2022-07-06T10:30:02;25.80;99.90
13470;DHT22;6807;48.682;9.032;2022-07-06T10:32:29;27.20;99.90
13470;DHT22;6807;48.682;9.032;2022-07-06T10:34:56;27.70;99.90
13470;DHT22;6807;48.682;9.032;2022-07-06T10:37:25;27.70;99.90
13470;DHT22;6807;48.682;9.032;2022-07-06T10:39:54;27.20;99.90
13470;DHT22;6807;48.682;9.032;2022-07-06T10:42:41;28.10;99.90
13470;DHT22;6807;48.682;9.032;2022-07-06T10:45:11;28.20;99.90
13470;DHT22;6807;48.682;9.032;2022-07-06T10:47:38;28.40;99.90
13470;DHT22;6807;48.682;9.032;2022-07-06T10:50:06;27.00;99.90
13470;DHT22;6807;48.682;9.032;2022-07-06T10:52:53;26.10;99.90
13470;DHT22;6807;48.682;9.032;2022-07-06T10:55:36;24.30;99.90
13470;DHT22;6807;48.682;9.032;2022-07-06T11:01:28;25.70;99.90
13470;DHT22;6807;48.682;9.032;2022-07-06T11:04:11;25.30;99.90
13470;DHT22;6807;48.682;9.032;2022-07-06T11:06:39;24.40;99.90
13470;DHT22;6807;48.682;9.032;2022-07-06T11:09:10;24.40;99.90
13470;DHT22;6807;48.682;9.032;2022-07-06T11:11:42;24.30;99.90
13470;DHT22;6807;48.682;9.032;2022-07-06T11:14:14;24.30;99.90
13470;DHT22;6807;48.682;9.032;2022-07-06T11:17:00;23.70;99.90
13470;DHT22;6807;48.682;9.032;2022-07-06T11:19:28;23.60;99.90
13470;DHT22;6807;48.682;9.032;2022-07-06T11:21:56;23.40;99.90
13470;DHT22;6807;48.682;9.032;2022-07-06T11:24:27;23.30;99.90
13470;DHT22;6807;48.682;9.032;2022-07-06T11:26:57;23.30;99.90
13470;DHT22;6807;48.682;9.032;2022-07-06T11:29:26;23.60;99.90
13470;DHT22;6807;48.682;9.032;2022-07-06T11:32:05;24.60;99.90
13470;DHT22;6807;48.682;9.032;2022-07-06T11:34:48;26.70;99.90
13470;DHT22;6807;48.682;9.032;2022-07-06T11:37:15;26.80;1.00
13470;DHT22;6807;48.682;9.032;2022-07-06T11:39:44;26.60;99.90
13470;DHT22;6807;48.682;9.032;2022-07-06T11:42:14;27.00;99.90
13470;DHT22;6807;48.682;9.032;2022-07-06T11:44:41;27.00;99.90
13470;DHT22;6807;48.682;9.032;2022-07-06T11:47:10;26.10;99.90
13470;DHT22;6807;48.682;9.032;2022-07-06T11:49:40;24.90;99.90
13470;DHT22;6807;48.682;9.032;2022-07-06T11:52:09;24.80;99.90
13470;DHT22;6807;48.682;9.032;2022-07-06T11:54:39;24.50;99.90
13470;DHT22;6807;48.682;9.032;2022-07-06T11:57:10;24.40;99.90
13470;DHT22;6807;48.682;9.032;2022-07-06T11:59:40;24.80;99.90
13470;DHT22;6807;48.682;9.032;2022-07-06T12:02:21;25.40;1.00
13470;DHT22;6807;48.682;9.032;2022-07-06T12:04:48;24.90;99.90
13470;DHT22;6807;48.682;9.032;2022-07-06T12:07:16;24.10;99.90
13470;DHT22;6807;48.682;9.032;2022-07-06T12:09:45;24.20;99.90
13470;DHT22;6807;48.682;9.032;2022-07-06T12:12:12;23.90;99.90
13470;DHT22;6807;48.682;9.032;2022-07-06T12:14:42;23.90;99.90
13470;DHT22;6807;48.682;9.032;2022-07-06T12:17:10;24.50;99.90
13470;DHT22;6807;48.682;9.032;2022-07-06T12:19:38;25.40;1.00
13470;DHT22;6807;48.682;9.032;2022-07-06T12:22:07;24.60;99.90
13470;DHT22;6807;48.682;9.032;2022-07-06T12:24:35;25.30;99.90
13470;DHT22;6807;48.682;9.032;2022-07-06T12:27:13;26.90;99.90
13470;DHT22;6807;48.682;9.032;2022-07-06T12:29:42;26.90;99.90
13470;DHT22;6807;48.682;9.032;2022-07-06T12:32:14;26.10;99.90
13470;DHT22;6807;48.682;9.032;2022-07-06T12:34:41;25.00;99.90
13470;DHT22;6807;48.682;9.032;2022-07-06T12:37:10;24.30;99.90
13470;DHT22;6807;48.682;9.032;2022-07-06T12:39:41;23.90;99.90
13470;DHT22;6807;48.682;9.032;2022-07-06T12:42:08;23.80;99.90
13470;DHT22;6807;48.682;9.032;2022-07-06T12:44:44;24.10;99.90
13470;DHT22;6807;48.682;9.032;2022-07-06T12:47:11;25.60;99.90
13470;DHT22;6807;48.682;9.032;2022-07-06T12:49:39;24.80;99.90
13470;DHT22;6807;48.682;9.032;2022-07-06T12:52:10;25.50;99.90
13470;DHT22;6807;48.682;9.032;2022-07-06T12:54:41;27.10;99.90
13470;DHT22;6807;48.682;9.032;2022-07-06T12:57:10;26.30;99.90
13470;DHT22;6807;48.682;9.032;2022-07-06T12:59:42;25.40;99.90
13470;DHT22;6807;48.682;9.032;2022-07-06T13:02:18;25.00;99.90
13470;DHT22;6807;48.682;9.032;2022-07-06T13:04:55;26.40;99.90
13470;DHT22;6807;48.682;9.032;2022-07-06T13:07:23;26.60;99.90
13470;DHT22;6807;48.682;9.032;2022-07-06T13:09:51;26.40;99.90
13470;DHT22;6807;48.682;9.032;2022-07-06T13:12:19;27.50;99.90
13470;DHT22;6807;48.682;9.032;2022-07-06T13:14:47;28.40;99.90
13470;DHT22;6807;48.682;9.032;2022-07-06T13:17:16;28.60;99.90
13470;DHT22;6807;48.682;9.032;2022-07-06T13:19:43;29.00;99.90
13470;DHT22;6807;48.682;9.032;2022-07-06T13:22:10;29.10;99.90
13470;DHT22;6807;48.682;9.032;2022-07-06T13:24:38;29.30;99.90
13470;DHT22;6807;48.682;9.032;2022-07-06T13:27:05;27.80;99.90
13470;DHT22;6807;48.682;9.032;2022-07-06T13:29:32;28.10;99.90
13470;DHT22;6807;48.682;9.032;2022-07-06T13:32:01;27.00;99.90
13470;DHT22;6807;48.682;9.032;2022-07-06T13:34:28;27.10;99.90
13470;DHT22;6807;48.682;9.032;2022-07-06T13:36:55;27.70;99.90
13470;DHT22;6807;48.682;9.032;2022-07-06T13:39:22;27.90;99.90
13470;DHT22;6807;48.682;9.032;2022-07-06T13:41:49;28.10;99.90
13470;DHT22;6807;48.682;9.032;2022-07-06T13:44:16;28.60;99.90
13470;DHT22;6807;48.682;9.032;2022-07-06T13:46:43;28.60;99.90
13470;DHT22;6807;48.682;9.032;2022-07-06T13:49:11;26.80;99.90
13470;DHT22;6807;48.682;9.032;2022-07-06T13:51:38;26.50;99.90
13470;DHT22;6807;48.682;9.032;2022-07-06T13:54:05;25.80;99.90
13470;DHT22;6807;48.682;9.032;2022-07-06T13:56:32;27.00;99.90
13470;DHT22;6807;48.682;9.032;2022-07-06T13:58:59;27.30;99.90
13470;DHT22;6807;48.682;9.032;2022-07-06T14:01:26;26.50;99.90
13470;DHT22;6807;48.682;9.032;2022-07-06T14:03:53;27.20;99.90
13470;DHT22;6807;48.682;9.032;2022-07-06T14:06:21;27.00;99.90
13470;DHT22;6807;48.682;9.032;2022-07-06T14:08:48;26.70;99.90
13470;DHT22;6807;48.682;9.032;2022-07-06T14:11:17;26.40;99.90
13470;DHT22;6807;48.682;9.032;2022-07-06T14:13:44;26.20;99.90
13470;DHT22;6807;48.682;9.032;2022-07-06T14:16:11;27.10;99.90
13470;DHT22;6807;48.682;9.032;2022-07-06T14:18:38;27.30;99.90
13470;DHT22;6807;48.682;9.032;2022-07-06T14:21:05;27.40;99.90
13470;DHT22;6807;48.682;9.032;2022-07-06T14:23:33;27.10;99.90
13470;DHT22;6807;48.682;9.032;2022-07-06T14:26:00;27.30;99.90
13470;DHT22;6807;48.682;9.032;2022-07-06T14:28:31;26.80;99.90
13470;DHT22;6807;48.682;9.032;2022-07-06T14:30:58;26.90;99.90
13470;DHT22;6807;48.682;9.032;2022-07-06T14:33:27;26.50;99.90
13470;DHT22;6807;48.682;9.032;2022-07-06T14:35:53;26.70;99.90
13470;DHT22;6807;48.682;9.032;2022-07-06T14:38:21;26.40;99.90
13470;DHT22;6807;48.682;9.032;2022-07-06T14:40:50;26.50;99.90
13470;DHT22;6807;48.682;9.032;2022-07-06T14:43:17;25.70;99.90
13470;DHT22;6807;48.682;9.032;2022-07-06T14:45:45;25.90;99.90
13470;DHT22;6807;48.682;9.032;2022-07-06T14:48:12;25.80;99.90
13470;DHT22;6807;48.682;9.032;2022-07-06T14:50:40;25.80;99.90
13470;DHT22;6807;48.682;9.032;2022-07-06T14:53:07;26.10;99.90
13470;DHT22;6807;48.682;9.032;2022-07-06T14:55:34;26.10;99.90
13470;DHT22;6807;48.682;9.032;2022-07-06T14:58:02;26.70;99.90
13470;DHT22;6807;48.682;9.032;2022-07-06T15:00:29;26.40;99.90
13470;DHT22;6807;48.682;9.032;2022-07-06T15:02:56;26.10;99.90
13470;DHT22;6807;48.682;9.032;2022-07-06T15:05:23;26.40;99.90
13470;DHT22;6807;48.682;9.032;2022-07-06T15:07:50;26.30;99.90
13470;DHT22;6807;48.682;9.032;2022-07-06T15:10:17;26.30;99.90
13470;DHT22;6807;48.682;9.032;2022-07-06T15:12:46;26.40;99.90
13470;DHT22;6807;48.682;9.032;2022-07-06T15:15:15;25.90;99.90
13470;DHT22;6807;48.682;9.032;2022-07-06T15:17:42;26.00;99.90
13470;DHT22;6807;48.682;9.032;2022-07-06T15:20:10;25.80;99.90
13470;DHT22;6807;48.682;9.032;2022-07-06T15:22:37;25.30;99.90
13470;DHT22;6807;48.682;9.032;2022-07-06T15:25:05;25.50;99.90
13470;DHT22;6807;48.682;9.032;2022-07-06T15:27:32;25.10;99.90
13470;DHT22;6807;48.682;9.032;2022-07-06T15:29:59;24.70;99.90
13470;DHT22;6807;48.682;9.032;2022-07-06T15:32:27;24.50;99.90
13470;DHT22;6807;48.682;9.032;2022-07-06T15:34:54;24.40;99.90
13470;DHT22;6807;48.682;9.032;2022-07-06T15:37:22;24.10;99.90
13470;DHT22;6807;48.682;9.032;2022-07-06T15:39:49;23.90;99.90
13470;DHT22;6807;48.682;9.032;2022-07-06T15:42:16;24.10;99.90
13470;DHT22;6807;48.682;9.032;2022-07-06T15:44:43;24.00;99.90
13470;DHT22;6807;48.682;9.032;2022-07-06T15:47:10;24.00;99.90
13470;DHT22;6807;48.682;9.032;2022-07-06T15:49:39;24.20;99.90
13470;DHT22;6807;48.682;9.032;2022-07-06T15:52:06;24.10;99.90
13470;DHT22;6807;48.682;9.032;2022-07-06T15:54:33;24.50;99.90
13470;DHT22;6807;48.682;9.032;2022-07-06T15:57:01;24.50;99.90
13470;DHT22;6807;48.682;9.032;2022-07-06T15:59:28;24.60;99.90
13470;DHT22;6807;48.682;9.032;2022-07-06T16:01:54;24.80;99.90